createdAt,value
2022-11-27T00:01:01.549Z,101538.19
2022-11-27T00:03:29.819Z,101537.72
2022-11-27T00:05:59.595Z,101544.50
2022-11-27T00:08:27.675Z,101541.69
2022-11-27T00:10:55.814Z,101546.75
2022-11-27T00:13:25.307Z,101550.72
2022-11-27T00:15:53.431Z,101545.28
2022-11-27T00:18:21.550Z,101550.78
2022-11-27T00:20:49.635Z,101552.00
2022-11-27T00:23:17.767Z,101559.72
2022-11-27T00:25:51.840Z,101560.94
2022-11-27T00:28:20.034Z,101556.28
2022-11-27T00:30:49.560Z,101560.69
2022-11-27T00:33:17.746Z,101563.34
2022-11-27T00:35:46.094Z,101569.72
2022-11-27T00:38:14.138Z,101561.97
2022-11-27T00:40:42.309Z,101562.56
2022-11-27T00:43:10.438Z,101558.22
2022-11-27T00:45:38.638Z,101561.66
2022-11-27T00:48:08.388Z,101554.81
2022-11-27T00:50:36.557Z,101548.34
2022-11-27T00:53:04.718Z,101539.19
2022-11-27T00:55:32.789Z,101540.88
2022-11-27T00:58:00.949Z,101542.81
2022-11-27T01:00:29.029Z,101540.09
2022-11-27T01:02:57.152Z,101550.13
2022-11-27T01:05:26.672Z,101535.50
2022-11-27T01:07:54.987Z,101544.28
2022-11-27T01:10:23.142Z,101539.50
2022-11-27T01:12:51.233Z,101543.53
2022-11-27T01:15:19.499Z,101538.22
2022-11-27T01:17:47.717Z,101536.84
2022-11-27T01:20:15.965Z,101543.72
2022-11-27T01:22:46.031Z,101549.47
2022-11-27T01:25:14.080Z,101544.34
2022-11-27T01:27:42.251Z,101545.00
2022-11-27T01:30:11.655Z,101537.56
2022-11-27T01:32:39.746Z,101546.13
2022-11-27T01:35:08.999Z,101545.06
2022-11-27T01:37:37.083Z,101546.94
2022-11-27T01:40:08.308Z,101547.56
2022-11-27T01:42:36.439Z,101535.47
2022-11-27T01:45:04.798Z,101545.78
2022-11-27T01:47:41.395Z,101547.22
2022-11-27T01:50:15.085Z,101549.16
2022-11-27T01:52:49.123Z,101550.31
2022-11-27T01:55:25.338Z,101537.25
2022-11-27T01:57:57.650Z,101538.03
2022-11-27T02:00:27.179Z,101542.75
2022-11-27T02:02:55.449Z,101541.78
2022-11-27T02:05:26.291Z,101540.69
2022-11-27T02:07:54.954Z,101539.50
2022-11-27T02:10:28.444Z,101545.47
2022-11-27T02:13:05.653Z,101544.69
2022-11-27T02:15:41.250Z,101545.28
2022-11-27T02:18:17.082Z,101551.94
2022-11-27T02:20:52.920Z,101553.13
2022-11-27T02:23:37.654Z,101558.34
2022-11-27T02:26:48.042Z,101554.81
2022-11-27T02:29:22.713Z,101560.94
2022-11-27T02:31:58.789Z,101544.44
2022-11-27T02:34:31.471Z,101550.84
2022-11-27T02:37:04.655Z,101549.66
2022-11-27T02:39:40.030Z,101549.03
2022-11-27T02:42:12.981Z,101554.97
2022-11-27T02:44:49.408Z,101545.66
2022-11-27T02:47:18.117Z,101554.34
2022-11-27T02:49:49.960Z,101559.31
2022-11-27T02:52:20.661Z,101549.03
2022-11-27T02:54:51.537Z,101555.28
2022-11-27T02:57:22.579Z,101561.81
2022-11-27T02:59:54.572Z,101557.47
2022-11-27T03:02:30.710Z,101566.31
2022-11-27T03:05:02.649Z,101569.53
2022-11-27T03:07:37.183Z,101571.09
2022-11-27T03:10:11.294Z,101573.63
2022-11-27T03:12:39.732Z,101569.09
2022-11-27T03:15:10.501Z,101567.34
2022-11-27T03:17:52.765Z,101568.16
2022-11-27T03:20:24.968Z,101580.69
2022-11-27T03:22:54.666Z,101567.69
2022-11-27T03:25:23.431Z,101565.22
2022-11-27T03:27:58.532Z,101569.31
2022-11-27T03:30:28.851Z,101568.44
2022-11-27T03:32:57.295Z,101560.06
2022-11-27T03:35:28.303Z,101558.47
2022-11-27T03:37:57.717Z,101554.34
2022-11-27T03:40:31.707Z,101557.22
2022-11-27T03:43:05.415Z,101559.50
2022-11-27T03:45:40.227Z,101560.19
2022-11-27T03:48:23.048Z,101554.00
2022-11-27T03:51:01.519Z,101548.09
2022-11-27T03:53:35.424Z,101551.34
2022-11-27T03:56:12.912Z,101548.56
2022-11-27T03:58:46.890Z,101551.94
2022-11-27T04:01:20.852Z,101539.81
2022-11-27T04:03:49.053Z,101543.16
2022-11-27T04:06:17.263Z,101544.41
2022-11-27T04:08:46.926Z,101539.59
2022-11-27T04:11:15.133Z,101537.50
2022-11-27T04:13:43.603Z,101537.50
2022-11-27T04:16:11.807Z,101540.97
2022-11-27T04:18:41.364Z,101542.31
2022-11-27T04:21:09.469Z,101534.84
2022-11-27T04:23:38.743Z,101532.66
2022-11-27T04:26:07.296Z,101530.13
2022-11-27T04:28:35.438Z,101537.41
2022-11-27T04:31:03.565Z,101528.50
2022-11-27T04:33:31.915Z,101536.94
2022-11-27T04:36:01.763Z,101526.00
2022-11-27T04:38:29.832Z,101529.69
2022-11-27T04:40:58.581Z,101531.09
2022-11-27T04:43:26.722Z,101528.06
2022-11-27T04:45:54.879Z,101540.22
2022-11-27T04:48:23.072Z,101549.19
2022-11-27T04:50:51.200Z,101547.94
2022-11-27T04:53:20.728Z,101545.16
2022-11-27T04:55:48.794Z,101552.78
2022-11-27T04:58:16.965Z,101550.59
2022-11-27T05:00:45.148Z,101557.63
2022-11-27T05:03:13.347Z,101553.78
2022-11-27T05:05:41.531Z,101557.00
2022-11-27T05:08:09.630Z,101556.44
2022-11-27T05:10:39.104Z,101570.63
2022-11-27T05:13:07.117Z,101558.84
2022-11-27T05:15:35.182Z,101548.63
2022-11-27T05:18:03.293Z,101556.81
2022-11-27T05:20:31.402Z,101557.28
2022-11-27T05:22:59.472Z,101555.94
2022-11-27T05:25:27.630Z,101553.91
2022-11-27T05:27:57.183Z,101543.75
2022-11-27T05:30:25.248Z,101541.41
2022-11-27T05:32:53.403Z,101544.97
2022-11-27T05:35:21.613Z,101547.16
2022-11-27T05:37:49.789Z,101559.81
2022-11-27T05:40:17.963Z,101561.19
2022-11-27T05:42:46.062Z,101566.00
2022-11-27T05:45:15.742Z,101567.22
2022-11-27T05:47:43.890Z,101569.63
2022-11-27T05:50:12.249Z,101565.50
2022-11-27T05:52:40.447Z,101571.19
2022-11-27T05:55:09.565Z,101581.28
2022-11-27T05:57:37.594Z,101579.41
2022-11-27T06:00:07.253Z,101572.59
2022-11-27T06:02:36.870Z,101575.97
2022-11-27T06:05:05.309Z,101573.84
2022-11-27T06:07:33.676Z,101561.56
2022-11-27T06:10:01.796Z,101563.91
2022-11-27T06:12:29.929Z,101562.09
2022-11-27T06:14:58.025Z,101570.72
2022-11-27T06:17:26.181Z,101574.72
2022-11-27T06:19:55.664Z,101574.00
2022-11-27T06:22:24.029Z,101570.81
2022-11-27T06:24:52.505Z,101576.72
2022-11-27T06:27:20.592Z,101582.09
2022-11-27T06:29:48.753Z,101585.41
2022-11-27T06:32:16.924Z,101588.00
2022-11-27T06:34:45.032Z,101590.25
2022-11-27T06:37:15.072Z,101594.19
2022-11-27T06:39:43.235Z,101598.13
2022-11-27T06:42:11.663Z,101589.84
2022-11-27T06:44:39.857Z,101599.91
2022-11-27T06:47:08.155Z,101605.03
2022-11-27T06:49:36.675Z,101606.19
2022-11-27T06:52:05.077Z,101602.56
2022-11-27T06:54:34.688Z,101600.38
2022-11-27T06:57:02.750Z,101605.44
2022-11-27T06:59:30.888Z,101611.03
2022-11-27T07:01:59.117Z,101613.13
2022-11-27T07:04:27.440Z,101621.41
2022-11-27T07:06:55.594Z,101624.63
2022-11-27T07:09:23.631Z,101623.13
2022-11-27T07:11:53.142Z,101624.25
2022-11-27T07:14:21.244Z,101625.31
2022-11-27T07:16:49.430Z,101619.59
2022-11-27T07:19:17.919Z,101624.84
2022-11-27T07:21:45.951Z,101622.91
2022-11-27T07:24:14.071Z,101624.03
2022-11-27T07:26:42.205Z,101626.06
2022-11-27T07:29:11.653Z,101629.44
2022-11-27T07:31:39.869Z,101627.00
2022-11-27T07:34:14.106Z,101621.75
2022-11-27T07:36:44.204Z,101615.69
2022-11-27T07:39:12.285Z,101618.69
2022-11-27T07:41:40.372Z,101617.28
2022-11-27T07:44:08.651Z,101611.75
2022-11-27T07:46:38.165Z,101615.91
2022-11-27T07:49:06.294Z,101608.00
2022-11-27T07:51:34.417Z,101601.78
2022-11-27T07:54:02.573Z,101611.63
2022-11-27T07:56:32.286Z,101621.19
2022-11-27T07:59:00.369Z,101617.34
2022-11-27T08:01:28.536Z,101623.22
2022-11-27T08:03:58.128Z,101621.88
2022-11-27T08:06:28.065Z,101624.84
2022-11-27T08:08:57.030Z,101624.28
2022-11-27T08:11:29.788Z,101630.41
2022-11-27T08:14:00.394Z,101631.53
2022-11-27T08:16:29.428Z,101634.09
2022-11-27T08:18:59.016Z,101623.63
2022-11-27T08:21:28.345Z,101623.31
2022-11-27T08:23:57.333Z,101628.94
2022-11-27T08:26:27.623Z,101631.13
2022-11-27T08:28:55.812Z,101628.03
2022-11-27T08:31:23.947Z,101618.09
2022-11-27T08:33:52.347Z,101620.91
2022-11-27T08:36:22.654Z,101619.13
2022-11-27T08:38:50.838Z,101622.59
2022-11-27T08:41:19.078Z,101628.28
2022-11-27T08:43:47.145Z,101632.94
2022-11-27T08:46:15.431Z,101631.41
2022-11-27T08:48:43.618Z,101634.00
2022-11-27T08:51:14.100Z,101628.50
2022-11-27T08:53:45.795Z,101621.69
2022-11-27T08:56:17.862Z,101625.38
2022-11-27T08:58:47.061Z,101611.16
2022-11-27T09:01:18.050Z,101601.06
2022-11-27T09:03:46.509Z,101604.00
2022-11-27T09:06:17.196Z,101599.88
2022-11-27T09:08:47.398Z,101602.41
2022-11-27T09:11:17.630Z,101604.97
2022-11-27T09:13:46.143Z,101603.84
2022-11-27T09:16:16.896Z,101603.88
2022-11-27T09:18:46.217Z,101605.59
2022-11-27T09:21:15.682Z,101587.75
2022-11-27T09:23:43.902Z,101597.13
2022-11-27T09:26:16.555Z,101596.06
2022-11-27T09:28:45.232Z,101593.47
2022-11-27T09:31:15.325Z,101595.50
2022-11-27T09:33:44.385Z,101587.78
2022-11-27T09:36:14.272Z,101590.44
2022-11-27T09:38:43.316Z,101592.59
2022-11-27T09:41:28.222Z,101589.50
2022-11-27T09:44:00.448Z,101585.44
2022-11-27T09:46:35.196Z,101577.34
2022-11-27T09:49:09.924Z,101567.22
2022-11-27T09:51:45.313Z,101559.97
2022-11-27T09:54:20.197Z,101562.91
2022-11-27T09:56:52.723Z,101557.34
2022-11-27T09:59:23.975Z,101555.84
2022-11-27T10:01:52.914Z,101551.38
2022-11-27T10:04:22.666Z,101550.81
2022-11-27T10:07:16.443Z,101544.72
2022-11-27T10:10:03.274Z,101547.28
2022-11-27T10:12:42.804Z,101545.91
2022-11-27T10:15:18.754Z,101538.50
2022-11-27T10:17:52.563Z,101524.19
2022-11-27T10:20:29.764Z,101544.25
2022-11-27T10:23:04.698Z,101548.09
2022-11-27T10:25:41.177Z,101548.78
2022-11-27T10:28:24.930Z,101538.81
2022-11-27T10:30:57.064Z,101530.69
2022-11-27T10:33:34.347Z,101526.19
2022-11-27T10:36:02.778Z,101518.53
2022-11-27T10:38:42.782Z,101524.59
2022-11-27T10:41:47.773Z,101528.13
2022-11-27T10:44:24.531Z,101522.53
2022-11-27T10:46:55.432Z,101524.41
2022-11-27T10:49:23.599Z,101519.34
2022-11-27T10:51:51.726Z,101514.84
2022-11-27T10:54:27.485Z,101516.97
2022-11-27T10:57:13.209Z,101517.94
2022-11-27T10:59:49.630Z,101521.78
2022-11-27T11:02:32.436Z,101515.66
2022-11-27T11:05:34.637Z,101505.81
2022-11-27T11:08:02.571Z,101509.31
2022-11-27T11:10:34.008Z,101508.16
2022-11-27T11:13:16.639Z,101505.75
2022-11-27T11:15:53.203Z,101509.25
2022-11-27T11:18:23.578Z,101492.09
2022-11-27T11:20:53.639Z,101492.09
2022-11-27T11:23:26.243Z,101489.19
2022-11-27T11:25:57.834Z,101482.97
2022-11-27T11:28:26.959Z,101488.56
2022-11-27T11:31:01.210Z,101490.59
2022-11-27T11:33:30.030Z,101490.28
2022-11-27T11:36:08.573Z,101487.44
2022-11-27T11:38:38.432Z,101487.94
2022-11-27T11:41:09.782Z,101488.03
2022-11-27T11:43:38.821Z,101488.00
2022-11-27T11:46:20.888Z,101490.06
2022-11-27T11:48:57.176Z,101488.56
2022-11-27T11:51:38.015Z,101478.72
2022-11-27T11:54:19.656Z,101488.34
2022-11-27T11:56:52.940Z,101473.94
2022-11-27T11:59:28.714Z,101476.91
2022-11-27T12:02:39.318Z,101484.66
2022-11-27T12:05:23.652Z,101468.06
2022-11-27T12:08:08.807Z,101469.13
2022-11-27T12:10:47.106Z,101467.81
2022-11-27T12:13:30.319Z,101472.66
2022-11-27T12:16:08.928Z,101466.19
2022-11-27T12:18:50.329Z,101463.22
2022-11-27T12:21:26.478Z,101461.91
2022-11-27T12:24:06.887Z,101460.31
2022-11-27T12:26:49.137Z,101454.75
2022-11-27T12:29:39.261Z,101453.69
2022-11-27T12:32:25.070Z,101456.13
2022-11-27T12:35:07.923Z,101461.97
2022-11-27T12:37:50.622Z,101459.03
2022-11-27T12:40:34.899Z,101458.50
2022-11-27T12:43:13.696Z,101467.31
2022-11-27T12:45:47.467Z,101471.31
2022-11-27T12:48:20.942Z,101470.28
2022-11-27T12:50:55.312Z,101454.50
2022-11-27T12:53:29.973Z,101454.19
2022-11-27T12:56:06.446Z,101451.78
2022-11-27T12:58:40.240Z,101456.88
2022-11-27T13:01:13.884Z,101454.50
2022-11-27T13:03:52.771Z,101442.47
2022-11-27T13:06:27.466Z,101454.47
2022-11-27T13:09:00.346Z,101468.34
2022-11-27T13:11:34.025Z,101457.06
2022-11-27T13:14:05.856Z,101460.28
2022-11-27T13:16:38.429Z,101451.97
2022-11-27T13:19:14.186Z,101455.44
2022-11-27T13:21:46.543Z,101456.69
2022-11-27T13:24:15.895Z,101465.00
2022-11-27T13:26:50.280Z,101455.38
2022-11-27T13:29:26.213Z,101458.53
2022-11-27T13:31:57.566Z,101457.44
2022-11-27T13:34:28.629Z,101458.19
2022-11-27T13:37:01.681Z,101453.69
2022-11-27T13:39:32.188Z,101450.97
2022-11-27T13:42:03.916Z,101463.53
2022-11-27T13:44:32.712Z,101464.75
2022-11-27T13:47:09.197Z,101459.41
2022-11-27T13:49:38.757Z,101462.63
2022-11-27T13:52:13.198Z,101468.53
2022-11-27T13:54:52.789Z,101455.50
2022-11-27T13:57:22.122Z,101447.25
2022-11-27T13:59:58.134Z,101449.00
2022-11-27T14:02:26.747Z,101448.41
2022-11-27T14:04:56.572Z,101451.66
2022-11-27T14:07:37.787Z,101458.38
2022-11-27T14:10:13.312Z,101455.91
2022-11-27T14:12:42.648Z,101450.88
2022-11-27T14:15:23.499Z,101458.16
2022-11-27T14:17:54.408Z,101452.81
2022-11-27T14:20:28.147Z,101469.00
2022-11-27T14:23:14.763Z,101452.81
2022-11-27T14:25:42.938Z,101454.16
2022-11-27T14:28:17.118Z,101457.34
2022-11-27T14:30:49.141Z,101461.81
2022-11-27T14:33:22.346Z,101462.50
2022-11-27T14:35:52.242Z,101459.81
2022-11-27T14:38:22.761Z,101461.94
2022-11-27T14:40:54.090Z,101449.25
2022-11-27T14:43:26.247Z,101456.22
2022-11-27T14:45:57.424Z,101458.56
2022-11-27T14:48:27.772Z,101455.91
2022-11-27T14:50:57.948Z,101452.75
2022-11-27T14:53:29.124Z,101452.94
2022-11-27T14:55:59.351Z,101459.03
2022-11-27T14:58:29.933Z,101461.97
2022-11-27T15:01:01.315Z,101457.19
2022-11-27T15:03:30.020Z,101465.19
2022-11-27T15:06:00.010Z,101459.91
2022-11-27T15:08:33.071Z,101470.47
2022-11-27T15:11:03.485Z,101466.84
2022-11-27T15:13:33.677Z,101454.09
2022-11-27T15:16:05.454Z,101461.78
2022-11-27T15:18:37.276Z,101465.34
2022-11-27T15:21:11.523Z,101458.44
2022-11-27T15:23:46.577Z,101454.69
2022-11-27T15:26:21.189Z,101458.22
2022-11-27T15:28:53.989Z,101461.13
2022-11-27T15:31:31.571Z,101463.75
2022-11-27T15:34:06.190Z,101460.53
2022-11-27T15:36:42.648Z,101454.22
2022-11-27T15:39:22.064Z,101453.53
2022-11-27T15:41:55.897Z,101455.38
2022-11-27T15:44:25.154Z,101452.47
2022-11-27T15:46:55.789Z,101452.84
2022-11-27T15:49:24.422Z,101458.94
2022-11-27T15:51:52.884Z,101453.59
2022-11-27T15:54:22.505Z,101454.66
2022-11-27T15:56:50.894Z,101449.53
2022-11-27T15:59:20.757Z,101460.44
2022-11-27T16:01:49.711Z,101462.22
2022-11-27T16:04:18.139Z,101455.22
2022-11-27T16:06:46.737Z,101453.56
2022-11-27T16:09:14.903Z,101455.84
2022-11-27T16:11:44.620Z,101453.13
2022-11-27T16:14:13.213Z,101453.63
2022-11-27T16:16:41.682Z,101453.13
2022-11-27T16:19:12.318Z,101448.91
2022-11-27T16:21:41.065Z,101451.31
2022-11-27T16:24:12.968Z,101453.81
2022-11-27T16:26:41.796Z,101450.34
2022-11-27T16:29:12.665Z,101456.09
2022-11-27T16:31:41.192Z,101451.66
2022-11-27T16:34:09.353Z,101451.03
2022-11-27T16:36:37.750Z,101448.16
2022-11-27T16:39:06.022Z,101453.19
2022-11-27T16:41:34.166Z,101456.84
2022-11-27T16:44:02.262Z,101457.28
2022-11-27T16:46:32.088Z,101470.06
2022-11-27T16:49:01.523Z,101465.59
2022-11-27T16:51:32.050Z,101461.56
2022-11-27T16:54:02.275Z,101455.69
2022-11-27T16:56:31.533Z,101465.19
2022-11-27T16:59:03.001Z,101470.47
2022-11-27T17:01:36.061Z,101469.00
2022-11-27T17:04:07.273Z,101470.63
2022-11-27T17:06:35.789Z,101465.00
2022-11-27T17:09:06.058Z,101466.75
2022-11-27T17:11:35.881Z,101471.56
2022-11-27T17:14:06.487Z,101475.28
2022-11-27T17:16:37.069Z,101464.09
2022-11-27T17:19:05.786Z,101467.16
2022-11-27T17:21:35.927Z,101461.34
2022-11-27T17:24:11.566Z,101458.41
2022-11-27T17:26:43.706Z,101456.53
2022-11-27T17:29:12.790Z,101459.84
2022-11-27T17:31:42.804Z,101457.09
2022-11-27T17:34:13.352Z,101466.75
2022-11-27T17:36:43.244Z,101454.97
2022-11-27T17:39:13.227Z,101453.56
2022-11-27T17:41:41.924Z,101462.09
2022-11-27T17:44:10.069Z,101460.44
2022-11-27T17:46:40.151Z,101459.19
2022-11-27T17:49:09.878Z,101453.78
2022-11-27T17:51:38.166Z,101449.34
2022-11-27T17:54:06.444Z,101455.28
2022-11-27T17:56:35.465Z,101442.16
2022-11-27T17:59:04.266Z,101439.28
2022-11-27T18:01:35.368Z,101436.72
2022-11-27T18:04:04.290Z,101436.22
2022-11-27T18:06:36.047Z,101423.22
2022-11-27T18:09:04.573Z,101423.03
2022-11-27T18:11:34.559Z,101434.28
2022-11-27T18:14:03.719Z,101435.91
2022-11-27T18:16:34.041Z,101437.34
2022-11-27T18:19:05.603Z,101434.50
2022-11-27T18:21:35.649Z,101432.81
2022-11-27T18:27:08.115Z,101431.81
2022-11-27T18:29:37.009Z,101435.19
2022-11-27T18:32:05.553Z,101432.63
2022-11-27T18:34:33.886Z,101438.47
2022-11-27T18:37:03.719Z,101442.03
2022-11-27T18:39:32.647Z,101449.75
2022-11-27T18:42:01.122Z,101445.13
2022-11-27T18:44:29.363Z,101443.34
2022-11-27T18:46:57.813Z,101450.28
2022-11-27T18:49:26.037Z,101445.22
2022-11-27T18:51:56.558Z,101448.97
2022-11-27T18:54:26.115Z,101439.56
2022-11-27T18:56:54.398Z,101435.34
2022-11-27T18:59:22.515Z,101438.00
2022-11-27T19:01:50.664Z,101426.16
2022-11-27T19:04:18.834Z,101435.78
2022-11-27T19:06:47.366Z,101433.66
2022-11-27T19:09:16.426Z,101428.78
2022-11-27T19:11:45.977Z,101432.41
2022-11-27T19:14:14.103Z,101439.97
2022-11-27T19:16:46.569Z,101438.03
2022-11-27T19:22:07.522Z,101446.09
2022-11-27T19:24:35.758Z,101441.00
2022-11-27T19:27:05.456Z,101445.53
2022-11-27T19:29:33.709Z,101447.53
2022-11-27T19:32:01.828Z,101453.81
2022-11-27T19:34:30.443Z,101446.34
2022-11-27T19:36:59.166Z,101440.53
2022-11-27T19:39:27.951Z,101458.47
2022-11-27T19:41:58.068Z,101438.06
2022-11-27T19:44:28.029Z,101439.50
2022-11-27T19:46:56.130Z,101443.50
2022-11-27T19:49:24.415Z,101436.75
2022-11-27T19:51:52.659Z,101447.88
2022-11-27T19:54:21.921Z,101442.13
2022-11-27T19:56:50.123Z,101438.19
2022-11-27T19:59:25.749Z,101438.50
2022-11-27T20:01:56.055Z,101437.47
2022-11-27T20:04:25.295Z,101434.59
2022-11-27T20:06:53.876Z,101428.72
2022-11-27T20:09:22.051Z,101429.91
2022-11-27T20:11:50.230Z,101435.66
2022-11-27T20:14:19.505Z,101432.66
2022-11-27T20:16:47.911Z,101436.09
2022-11-27T20:19:17.512Z,101431.75
2022-11-27T20:21:45.977Z,101425.00
2022-11-27T20:24:14.593Z,101422.09
2022-11-27T20:26:43.301Z,101427.81
2022-11-27T20:29:12.637Z,101427.22
2022-11-27T20:31:44.737Z,101408.56
2022-11-27T20:34:20.278Z,101411.16
2022-11-27T20:36:48.981Z,101418.72
2022-11-27T20:39:21.357Z,101418.06
2022-11-27T20:41:51.187Z,101410.31
2022-11-27T20:44:19.468Z,101419.88
2022-11-27T20:46:48.296Z,101417.25
2022-11-27T20:49:18.128Z,101415.31
2022-11-27T20:51:48.935Z,101411.59
2022-11-27T20:54:17.835Z,101415.53
2022-11-27T20:56:46.765Z,101418.66
2022-11-27T20:59:14.971Z,101424.69
2022-11-27T21:01:43.522Z,101413.50
2022-11-27T21:04:21.988Z,101417.25
2022-11-27T21:06:50.342Z,101423.59
2022-11-27T21:09:19.127Z,101417.97
2022-11-27T21:11:48.221Z,101400.19
2022-11-27T21:14:17.590Z,101402.59
2022-11-27T21:16:48.879Z,101409.09
2022-11-27T21:19:21.068Z,101410.25
2022-11-27T21:21:50.016Z,101420.53
2022-11-27T21:24:18.833Z,101414.72
2022-11-27T21:26:47.085Z,101417.59
2022-11-27T21:29:15.259Z,101408.19
2022-11-27T21:31:46.893Z,101414.00
2022-11-27T21:34:16.001Z,101417.81
2022-11-27T21:36:45.547Z,101415.84
2022-11-27T21:39:20.264Z,101413.91
2022-11-27T21:41:49.728Z,101420.38
2022-11-27T21:44:18.229Z,101416.00
2022-11-27T21:46:46.904Z,101418.56
2022-11-27T21:49:17.196Z,101410.72
2022-11-27T21:51:47.185Z,101415.06
2022-11-27T21:54:16.278Z,101403.44
2022-11-27T21:56:44.493Z,101407.09
2022-11-27T21:59:14.730Z,101401.56
2022-11-27T22:01:45.194Z,101399.78
2022-11-27T22:04:13.475Z,101396.50
2022-11-27T22:06:43.410Z,101395.13
2022-11-27T22:09:15.641Z,101401.56
2022-11-27T22:11:44.934Z,101390.75
2022-11-27T22:14:13.541Z,101394.13
2022-11-27T22:16:45.995Z,101393.69
2022-11-27T22:19:15.413Z,101397.00
2022-11-27T22:21:44.557Z,101389.66
2022-11-27T22:24:18.836Z,101395.38
2022-11-27T22:26:47.725Z,101392.72
2022-11-27T22:29:16.070Z,101392.50
2022-11-27T22:31:44.142Z,101384.63
2022-11-27T22:34:12.236Z,101375.91
2022-11-27T22:36:40.524Z,101384.53
2022-11-27T22:39:09.164Z,101378.91
2022-11-27T22:41:40.032Z,101382.38
2022-11-27T22:44:08.981Z,101377.63
2022-11-27T22:46:37.962Z,101377.81
2022-11-27T22:49:07.685Z,101374.94
2022-11-27T22:51:37.517Z,101380.19
2022-11-27T22:54:07.293Z,101373.25
2022-11-27T22:56:36.303Z,101366.84
2022-11-27T23:01:55.625Z,101362.34
2022-11-27T23:04:23.737Z,101371.81
2022-11-27T23:06:51.975Z,101363.00
2022-11-27T23:09:20.182Z,101364.28
2022-11-27T23:11:49.269Z,101370.13
2022-11-27T23:14:18.941Z,101366.84
2022-11-27T23:16:47.185Z,101373.13
2022-11-27T23:19:15.425Z,101365.16
2022-11-27T23:21:43.570Z,101364.69
2022-11-27T23:24:13.366Z,101359.88
2022-11-27T23:26:41.529Z,101357.53
2022-11-27T23:29:10.537Z,101362.75
2022-11-27T23:31:40.283Z,101356.00
2022-11-27T23:34:11.179Z,101357.88
2022-11-27T23:36:39.647Z,101356.19
2022-11-27T23:39:09.974Z,101345.63
2022-11-27T23:41:38.225Z,101350.34
2022-11-27T23:44:06.596Z,101347.63
2022-11-27T23:46:34.780Z,101339.69
2022-11-27T23:49:04.249Z,101335.63
2022-11-27T23:51:33.809Z,101332.44
2022-11-27T23:54:02.613Z,101329.78
2022-11-27T23:56:33.875Z,101330.81
2022-11-27T23:59:02.412Z,101324.00
